sensor_id;sensor_type;location;lat;lon;timestamp;P1;durP1;ratioP1;P2;durP2;ratioP2
28605;SDS011;46498;49.968;7.754;2022-10-16T00:02:03;5.62;;;0.90;;
28605;SDS011;46498;49.968;7.754;2022-10-16T00:07:04;10.43;;;1.05;;
28605;SDS011;46498;49.968;7.754;2022-10-16T00:12:05;2.37;;;0.85;;
28605;SDS011;46498;49.968;7.754;2022-10-16T00:17:07;1.10;;;0.80;;
28605;SDS011;46498;49.968;7.754;2022-10-16T00:22:08;7.47;;;1.12;;
28605;SDS011;46498;49.968;7.754;2022-10-16T00:27:09;2.55;;;0.90;;
28605;SDS011;46498;49.968;7.754;2022-10-16T00:32:09;2.65;;;0.98;;
28605;SDS011;46498;49.968;7.754;2022-10-16T00:37:10;4.80;;;0.75;;
28605;SDS011;46498;49.968;7.754;2022-10-16T00:42:16;2.95;;;0.82;;
28605;SDS011;46498;49.968;7.754;2022-10-16T00:47:22;7.62;;;1.20;;
28605;SDS011;46498;49.968;7.754;2022-10-16T00:52:28;7.35;;;4.20;;
28605;SDS011;46498;49.968;7.754;2022-10-16T00:57:29;3.83;;;1.40;;
28605;SDS011;46498;49.968;7.754;2022-10-16T01:02:30;4.87;;;0.88;;
28605;SDS011;46498;49.968;7.754;2022-10-16T01:13:06;5.30;;;0.95;;
28605;SDS011;46498;49.968;7.754;2022-10-16T01:24:39;8.57;;;3.70;;
28605;SDS011;46498;49.968;7.754;2022-10-16T01:29:48;7.32;;;4.32;;
28605;SDS011;46498;49.968;7.754;2022-10-16T01:34:57;6.50;;;3.62;;
28605;SDS011;46498;49.968;7.754;2022-10-16T01:40:03;10.00;;;4.72;;
28605;SDS011;46498;49.968;7.754;2022-10-16T01:45:08;5.07;;;2.72;;
28605;SDS011;46498;49.968;7.754;2022-10-16T01:50:13;5.50;;;2.08;;
28605;SDS011;46498;49.968;7.754;2022-10-16T01:55:18;10.02;;;2.22;;
28605;SDS011;46498;49.968;7.754;2022-10-16T02:00:24;6.68;;;1.75;;
28605;SDS011;46498;49.968;7.754;2022-10-16T02:05:28;6.95;;;1.90;;
28605;SDS011;46498;49.968;7.754;2022-10-16T02:10:33;5.30;;;3.08;;
28605;SDS011;46498;49.968;7.754;2022-10-16T02:15:36;4.60;;;2.20;;
28605;SDS011;46498;49.968;7.754;2022-10-16T02:20:40;8.60;;;2.97;;
28605;SDS011;46498;49.968;7.754;2022-10-16T02:25:53;5.03;;;2.00;;
28605;SDS011;46498;49.968;7.754;2022-10-16T02:31:00;2.15;;;1.90;;
28605;SDS011;46498;49.968;7.754;2022-10-16T02:36:05;4.03;;;1.80;;
28605;SDS011;46498;49.968;7.754;2022-10-16T02:41:06;5.53;;;2.05;;
28605;SDS011;46498;49.968;7.754;2022-10-16T02:46:08;6.68;;;1.80;;
28605;SDS011;46498;49.968;7.754;2022-10-16T02:51:09;3.10;;;2.00;;
28605;SDS011;46498;49.968;7.754;2022-10-16T02:56:10;6.50;;;2.42;;
28605;SDS011;46498;49.968;7.754;2022-10-16T03:01:10;1.77;;;1.60;;
28605;SDS011;46498;49.968;7.754;2022-10-16T03:06:13;4.43;;;2.40;;
28605;SDS011;46498;49.968;7.754;2022-10-16T03:11:13;7.43;;;1.77;;
28605;SDS011;46498;49.968;7.754;2022-10-16T03:16:14;4.90;;;1.70;;
28605;SDS011;46498;49.968;7.754;2022-10-16T03:21:15;6.22;;;1.65;;
28605;SDS011;46498;49.968;7.754;2022-10-16T03:26:17;3.72;;;1.62;;
28605;SDS011;46498;49.968;7.754;2022-10-16T03:31:17;3.47;;;1.70;;
28605;SDS011;46498;49.968;7.754;2022-10-16T03:36:19;2.37;;;1.30;;
28605;SDS011;46498;49.968;7.754;2022-10-16T03:41:19;1.98;;;1.30;;
28605;SDS011;46498;49.968;7.754;2022-10-16T03:46:20;1.95;;;1.00;;
28605;SDS011;46498;49.968;7.754;2022-10-16T03:51:21;2.42;;;1.23;;
28605;SDS011;46498;49.968;7.754;2022-10-16T03:56:22;3.45;;;1.08;;
28605;SDS011;46498;49.968;7.754;2022-10-16T04:01:23;1.92;;;1.40;;
28605;SDS011;46498;49.968;7.754;2022-10-16T04:06:24;2.95;;;1.20;;
28605;SDS011;46498;49.968;7.754;2022-10-16T04:11:24;3.58;;;0.90;;
28605;SDS011;46498;49.968;7.754;2022-10-16T04:16:25;1.98;;;1.17;;
28605;SDS011;46498;49.968;7.754;2022-10-16T04:21:26;2.35;;;0.70;;
28605;SDS011;46498;49.968;7.754;2022-10-16T04:26:27;1.30;;;0.80;;
28605;SDS011;46498;49.968;7.754;2022-10-16T04:31:28;2.08;;;0.75;;
28605;SDS011;46498;49.968;7.754;2022-10-16T04:36:29;1.70;;;0.93;;
28605;SDS011;46498;49.968;7.754;2022-10-16T04:41:30;2.35;;;0.68;;
28605;SDS011;46498;49.968;7.754;2022-10-16T04:46:30;0.82;;;0.60;;
28605;SDS011;46498;49.968;7.754;2022-10-16T04:51:31;2.35;;;0.70;;
28605;SDS011;46498;49.968;7.754;2022-10-16T04:56:32;2.78;;;1.00;;
28605;SDS011;46498;49.968;7.754;2022-10-16T05:01:33;4.65;;;1.35;;
28605;SDS011;46498;49.968;7.754;2022-10-16T05:06:33;2.67;;;0.90;;
28605;SDS011;46498;49.968;7.754;2022-10-16T05:11:34;6.30;;;1.55;;
28605;SDS011;46498;49.968;7.754;2022-10-16T05:16:35;2.45;;;1.12;;
28605;SDS011;46498;49.968;7.754;2022-10-16T05:21:36;8.15;;;1.70;;
28605;SDS011;46498;49.968;7.754;2022-10-16T05:26:37;2.87;;;1.65;;
28605;SDS011;46498;49.968;7.754;2022-10-16T05:31:38;4.25;;;1.65;;
28605;SDS011;46498;49.968;7.754;2022-10-16T05:36:39;3.42;;;2.05;;
28605;SDS011;46498;49.968;7.754;2022-10-16T05:41:40;2.08;;;1.67;;
28605;SDS011;46498;49.968;7.754;2022-10-16T05:46:41;6.65;;;2.00;;
28605;SDS011;46498;49.968;7.754;2022-10-16T05:51:41;2.72;;;2.03;;
28605;SDS011;46498;49.968;7.754;2022-10-16T05:56:42;4.65;;;2.42;;
28605;SDS011;46498;49.968;7.754;2022-10-16T06:01:43;5.07;;;2.65;;
28605;SDS011;46498;49.968;7.754;2022-10-16T06:06:44;6.57;;;3.50;;
28605;SDS011;46498;49.968;7.754;2022-10-16T06:11:45;7.72;;;3.70;;
28605;SDS011;46498;49.968;7.754;2022-10-16T06:16:46;6.00;;;3.08;;
28605;SDS011;46498;49.968;7.754;2022-10-16T06:21:47;7.32;;;3.40;;
28605;SDS011;46498;49.968;7.754;2022-10-16T06:26:48;7.70;;;3.87;;
28605;SDS011;46498;49.968;7.754;2022-10-16T06:31:49;5.70;;;4.22;;
28605;SDS011;46498;49.968;7.754;2022-10-16T06:36:50;7.18;;;5.00;;
28605;SDS011;46498;49.968;7.754;2022-10-16T06:41:51;11.20;;;5.78;;
28605;SDS011;46498;49.968;7.754;2022-10-16T06:46:52;11.98;;;5.70;;
28605;SDS011;46498;49.968;7.754;2022-10-16T06:51:53;10.27;;;5.10;;
28605;SDS011;46498;49.968;7.754;2022-10-16T06:56:53;10.65;;;4.85;;
28605;SDS011;46498;49.968;7.754;2022-10-16T07:01:55;10.20;;;6.22;;
28605;SDS011;46498;49.968;7.754;2022-10-16T07:06:55;11.77;;;5.87;;
28605;SDS011;46498;49.968;7.754;2022-10-16T07:11:56;11.60;;;7.07;;
28605;SDS011;46498;49.968;7.754;2022-10-16T07:16:57;10.70;;;6.10;;
28605;SDS011;46498;49.968;7.754;2022-10-16T07:21:58;11.02;;;7.80;;
28605;SDS011;46498;49.968;7.754;2022-10-16T07:26:59;9.90;;;6.80;;
28605;SDS011;46498;49.968;7.754;2022-10-16T07:32:01;10.00;;;6.72;;
28605;SDS011;46498;49.968;7.754;2022-10-16T07:37:02;10.57;;;7.07;;
28605;SDS011;46498;49.968;7.754;2022-10-16T07:42:03;10.77;;;7.03;;
28605;SDS011;46498;49.968;7.754;2022-10-16T07:47:04;11.07;;;7.32;;
28605;SDS011;46498;49.968;7.754;2022-10-16T07:52:05;11.02;;;6.87;;
28605;SDS011;46498;49.968;7.754;2022-10-16T07:57:06;13.15;;;7.82;;
28605;SDS011;46498;49.968;7.754;2022-10-16T08:02:06;12.60;;;7.15;;
28605;SDS011;46498;49.968;7.754;2022-10-16T08:07:07;10.55;;;7.40;;
28605;SDS011;46498;49.968;7.754;2022-10-16T08:12:09;11.05;;;7.28;;
28605;SDS011;46498;49.968;7.754;2022-10-16T08:17:13;12.97;;;8.37;;
28605;SDS011;46498;49.968;7.754;2022-10-16T08:22:14;16.65;;;9.30;;
28605;SDS011;46498;49.968;7.754;2022-10-16T08:27:15;24.37;;;14.85;;
28605;SDS011;46498;49.968;7.754;2022-10-16T08:32:16;12.70;;;8.30;;
28605;SDS011;46498;49.968;7.754;2022-10-16T08:37:17;13.35;;;7.22;;
28605;SDS011;46498;49.968;7.754;2022-10-16T08:43:08;7.55;;;6.05;;
28605;SDS011;46498;49.968;7.754;2022-10-16T08:48:43;10.33;;;7.03;;
28605;SDS011;46498;49.968;7.754;2022-10-16T08:53:57;22.90;;;14.45;;
28605;SDS011;46498;49.968;7.754;2022-10-16T08:59:02;12.13;;;7.62;;
28605;SDS011;46498;49.968;7.754;2022-10-16T09:16:11;11.20;;;6.82;;
28605;SDS011;46498;49.968;7.754;2022-10-16T09:21:27;13.27;;;7.82;;
28605;SDS011;46498;49.968;7.754;2022-10-16T09:26:31;10.50;;;6.90;;
28605;SDS011;46498;49.968;7.754;2022-10-16T09:31:32;13.98;;;8.23;;
28605;SDS011;46498;49.968;7.754;2022-10-16T09:36:41;9.23;;;6.68;;
28605;SDS011;46498;49.968;7.754;2022-10-16T09:41:45;5.65;;;4.47;;
28605;SDS011;46498;49.968;7.754;2022-10-16T09:46:46;3.47;;;2.80;;
28605;SDS011;46498;49.968;7.754;2022-10-16T09:51:47;11.57;;;6.75;;
28605;SDS011;46498;49.968;7.754;2022-10-16T09:56:48;3.85;;;2.55;;
28605;SDS011;46498;49.968;7.754;2022-10-16T10:01:52;14.48;;;7.35;;
28605;SDS011;46498;49.968;7.754;2022-10-16T10:06:55;5.10;;;3.37;;
28605;SDS011;46498;49.968;7.754;2022-10-16T10:11:58;15.77;;;6.25;;
28605;SDS011;46498;49.968;7.754;2022-10-16T10:17:11;19.12;;;5.43;;
28605;SDS011;46498;49.968;7.754;2022-10-16T10:28:38;6.60;;;3.12;;
28605;SDS011;46498;49.968;7.754;2022-10-16T10:34:33;4.35;;;3.30;;
28605;SDS011;46498;49.968;7.754;2022-10-16T10:39:49;7.28;;;4.22;;
28605;SDS011;46498;49.968;7.754;2022-10-16T10:51:06;4.95;;;3.45;;
28605;SDS011;46498;49.968;7.754;2022-10-16T10:56:17;7.65;;;4.85;;
28605;SDS011;46498;49.968;7.754;2022-10-16T11:03:30;6.68;;;4.12;;
28605;SDS011;46498;49.968;7.754;2022-10-16T11:17:58;8.23;;;4.87;;
28605;SDS011;46498;49.968;7.754;2022-10-16T11:24:53;5.75;;;3.85;;
28605;SDS011;46498;49.968;7.754;2022-10-16T11:30:04;3.95;;;3.12;;
28605;SDS011;46498;49.968;7.754;2022-10-16T11:35:17;5.35;;;3.10;;
28605;SDS011;46498;49.968;7.754;2022-10-16T11:40:28;4.73;;;3.27;;
28605;SDS011;46498;49.968;7.754;2022-10-16T11:45:38;10.43;;;4.07;;
28605;SDS011;46498;49.968;7.754;2022-10-16T11:59:34;5.07;;;3.92;;
28605;SDS011;46498;49.968;7.754;2022-10-16T12:10:30;3.35;;;2.67;;
28605;SDS011;46498;49.968;7.754;2022-10-16T12:15:33;11.85;;;4.40;;
28605;SDS011;46498;49.968;7.754;2022-10-16T12:20:59;5.47;;;2.70;;
28605;SDS011;46498;49.968;7.754;2022-10-16T12:26:05;8.13;;;2.80;;
28605;SDS011;46498;49.968;7.754;2022-10-16T12:31:07;8.98;;;3.20;;
28605;SDS011;46498;49.968;7.754;2022-10-16T12:36:13;8.02;;;3.45;;
28605;SDS011;46498;49.968;7.754;2022-10-16T12:41:27;4.82;;;3.05;;
28605;SDS011;46498;49.968;7.754;2022-10-16T12:46:37;5.82;;;2.67;;
28605;SDS011;46498;49.968;7.754;2022-10-16T12:51:40;3.03;;;2.40;;
28605;SDS011;46498;49.968;7.754;2022-10-16T13:11:57;4.45;;;2.83;;
28605;SDS011;46498;49.968;7.754;2022-10-16T13:24:41;8.15;;;4.00;;
28605;SDS011;46498;49.968;7.754;2022-10-16T13:32:44;16.75;;;6.80;;
28605;SDS011;46498;49.968;7.754;2022-10-16T13:37:48;5.03;;;3.03;;
28605;SDS011;46498;49.968;7.754;2022-10-16T13:43:03;8.77;;;3.53;;
28605;SDS011;46498;49.968;7.754;2022-10-16T13:48:05;5.70;;;3.70;;
28605;SDS011;46498;49.968;7.754;2022-10-16T13:53:13;7.00;;;4.68;;
28605;SDS011;46498;49.968;7.754;2022-10-16T13:58:15;7.82;;;4.57;;
28605;SDS011;46498;49.968;7.754;2022-10-16T14:03:16;6.35;;;4.18;;
28605;SDS011;46498;49.968;7.754;2022-10-16T14:08:17;15.65;;;4.30;;
28605;SDS011;46498;49.968;7.754;2022-10-16T14:13:19;9.70;;;5.68;;
28605;SDS011;46498;49.968;7.754;2022-10-16T14:18:26;6.10;;;4.25;;
28605;SDS011;46498;49.968;7.754;2022-10-16T14:23:36;7.80;;;4.50;;
28605;SDS011;46498;49.968;7.754;2022-10-16T14:28:39;7.50;;;3.87;;
28605;SDS011;46498;49.968;7.754;2022-10-16T14:33:41;9.30;;;4.82;;
28605;SDS011;46498;49.968;7.754;2022-10-16T14:38:43;10.75;;;5.10;;
28605;SDS011;46498;49.968;7.754;2022-10-16T14:43:50;8.48;;;4.60;;
28605;SDS011;46498;49.968;7.754;2022-10-16T14:49:30;8.10;;;4.68;;
28605;SDS011;46498;49.968;7.754;2022-10-16T14:54:32;9.65;;;5.28;;
28605;SDS011;46498;49.968;7.754;2022-10-16T14:59:42;8.20;;;5.10;;
28605;SDS011;46498;49.968;7.754;2022-10-16T15:04:46;9.43;;;5.50;;
28605;SDS011;46498;49.968;7.754;2022-10-16T15:09:48;9.10;;;5.50;;
28605;SDS011;46498;49.968;7.754;2022-10-16T15:14:50;9.93;;;6.60;;
28605;SDS011;46498;49.968;7.754;2022-10-16T15:19:50;7.45;;;6.30;;
28605;SDS011;46498;49.968;7.754;2022-10-16T15:24:51;10.70;;;6.93;;
28605;SDS011;46498;49.968;7.754;2022-10-16T15:29:52;14.65;;;7.43;;
28605;SDS011;46498;49.968;7.754;2022-10-16T15:34:53;11.10;;;7.12;;
28605;SDS011;46498;49.968;7.754;2022-10-16T15:39:54;7.45;;;6.45;;
28605;SDS011;46498;49.968;7.754;2022-10-16T15:44:55;7.65;;;5.68;;
28605;SDS011;46498;49.968;7.754;2022-10-16T15:49:55;10.80;;;5.68;;
28605;SDS011;46498;49.968;7.754;2022-10-16T15:54:56;8.57;;;5.78;;
28605;SDS011;46498;49.968;7.754;2022-10-16T15:59:57;8.90;;;6.07;;
28605;SDS011;46498;49.968;7.754;2022-10-16T16:04:58;11.25;;;6.12;;
28605;SDS011;46498;49.968;7.754;2022-10-16T16:10:00;15.43;;;7.30;;
28605;SDS011;46498;49.968;7.754;2022-10-16T16:15:02;14.95;;;7.72;;
28605;SDS011;46498;49.968;7.754;2022-10-16T16:20:06;10.30;;;7.85;;
28605;SDS011;46498;49.968;7.754;2022-10-16T16:30:10;13.68;;;7.72;;
28605;SDS011;46498;49.968;7.754;2022-10-16T16:35:20;13.05;;;7.22;;
28605;SDS011;46498;49.968;7.754;2022-10-16T16:40:24;9.25;;;6.97;;
28605;SDS011;46498;49.968;7.754;2022-10-16T16:45:27;11.73;;;6.82;;
28605;SDS011;46498;49.968;7.754;2022-10-16T16:50:28;12.85;;;6.65;;
28605;SDS011;46498;49.968;7.754;2022-10-16T16:55:28;9.80;;;6.45;;
28605;SDS011;46498;49.968;7.754;2022-10-16T17:00:30;9.70;;;6.47;;
28605;SDS011;46498;49.968;7.754;2022-10-16T17:05:35;11.30;;;6.72;;
28605;SDS011;46498;49.968;7.754;2022-10-16T17:10:41;10.75;;;5.78;;
28605;SDS011;46498;49.968;7.754;2022-10-16T17:15:46;10.25;;;6.68;;
28605;SDS011;46498;49.968;7.754;2022-10-16T17:20:48;11.63;;;7.30;;
28605;SDS011;46498;49.968;7.754;2022-10-16T17:25:50;7.20;;;5.43;;
28605;SDS011;46498;49.968;7.754;2022-10-16T17:30:51;13.40;;;7.05;;
28605;SDS011;46498;49.968;7.754;2022-10-16T17:35:51;10.77;;;7.32;;
28605;SDS011;46498;49.968;7.754;2022-10-16T17:40:52;11.18;;;7.10;;
28605;SDS011;46498;49.968;7.754;2022-10-16T17:45:53;9.63;;;7.20;;
28605;SDS011;46498;49.968;7.754;2022-10-16T17:50:54;10.25;;;7.35;;
28605;SDS011;46498;49.968;7.754;2022-10-16T17:55:54;13.80;;;7.95;;
28605;SDS011;46498;49.968;7.754;2022-10-16T18:00:59;11.85;;;7.72;;
28605;SDS011;46498;49.968;7.754;2022-10-16T18:06:00;10.95;;;7.05;;
28605;SDS011;46498;49.968;7.754;2022-10-16T18:11:07;18.58;;;11.40;;
28605;SDS011;46498;49.968;7.754;2022-10-16T18:16:10;24.27;;;14.40;;
28605;SDS011;46498;49.968;7.754;2022-10-16T18:21:13;25.02;;;15.85;;
28605;SDS011;46498;49.968;7.754;2022-10-16T18:26:15;20.88;;;14.70;;
28605;SDS011;46498;49.968;7.754;2022-10-16T18:31:16;22.42;;;14.95;;
28605;SDS011;46498;49.968;7.754;2022-10-16T18:36:22;26.75;;;15.85;;
28605;SDS011;46498;49.968;7.754;2022-10-16T18:41:25;26.85;;;14.90;;
28605;SDS011;46498;49.968;7.754;2022-10-16T18:46:27;25.43;;;14.97;;
28605;SDS011;46498;49.968;7.754;2022-10-16T18:51:29;23.87;;;13.23;;
28605;SDS011;46498;49.968;7.754;2022-10-16T18:56:31;23.75;;;14.23;;
28605;SDS011;46498;49.968;7.754;2022-10-16T19:01:33;24.05;;;14.93;;
28605;SDS011;46498;49.968;7.754;2022-10-16T19:06:36;26.77;;;16.23;;
28605;SDS011;46498;49.968;7.754;2022-10-16T19:11:39;29.02;;;15.93;;
28605;SDS011;46498;49.968;7.754;2022-10-16T19:16:42;20.90;;;15.05;;
28605;SDS011;46498;49.968;7.754;2022-10-16T19:21:43;23.60;;;15.93;;
28605;SDS011;46498;49.968;7.754;2022-10-16T19:26:47;26.40;;;17.52;;
28605;SDS011;46498;49.968;7.754;2022-10-16T19:31:48;25.88;;;15.15;;
28605;SDS011;46498;49.968;7.754;2022-10-16T19:36:51;22.00;;;16.27;;
28605;SDS011;46498;49.968;7.754;2022-10-16T19:41:52;20.52;;;14.15;;
28605;SDS011;46498;49.968;7.754;2022-10-16T19:46:53;32.45;;;19.40;;
28605;SDS011;46498;49.968;7.754;2022-10-16T19:51:54;28.27;;;17.85;;
28605;SDS011;46498;49.968;7.754;2022-10-16T19:56:55;21.25;;;14.07;;
28605;SDS011;46498;49.968;7.754;2022-10-16T20:01:58;17.87;;;12.40;;
28605;SDS011;46498;49.968;7.754;2022-10-16T20:06:59;18.52;;;11.85;;
28605;SDS011;46498;49.968;7.754;2022-10-16T20:12:00;21.20;;;12.07;;
28605;SDS011;46498;49.968;7.754;2022-10-16T20:17:01;17.75;;;11.30;;
28605;SDS011;46498;49.968;7.754;2022-10-16T20:22:02;15.68;;;9.82;;
28605;SDS011;46498;49.968;7.754;2022-10-16T20:27:04;19.20;;;9.43;;
28605;SDS011;46498;49.968;7.754;2022-10-16T20:32:05;12.37;;;7.68;;
28605;SDS011;46498;49.968;7.754;2022-10-16T20:37:05;18.30;;;9.00;;
28605;SDS011;46498;49.968;7.754;2022-10-16T20:42:06;13.43;;;7.62;;
28605;SDS011;46498;49.968;7.754;2022-10-16T20:47:07;12.80;;;7.45;;
28605;SDS011;46498;49.968;7.754;2022-10-16T20:52:08;13.50;;;9.05;;
28605;SDS011;46498;49.968;7.754;2022-10-16T20:57:09;20.30;;;9.18;;
28605;SDS011;46498;49.968;7.754;2022-10-16T21:02:10;11.55;;;8.43;;
28605;SDS011;46498;49.968;7.754;2022-10-16T21:07:15;15.05;;;9.25;;
28605;SDS011;46498;49.968;7.754;2022-10-16T21:12:17;9.53;;;7.33;;
28605;SDS011;46498;49.968;7.754;2022-10-16T21:17:17;11.35;;;7.12;;
28605;SDS011;46498;49.968;7.754;2022-10-16T21:22:19;16.80;;;8.57;;
28605;SDS011;46498;49.968;7.754;2022-10-16T21:27:20;18.02;;;8.88;;
28605;SDS011;46498;49.968;7.754;2022-10-16T21:32:20;13.52;;;8.10;;
28605;SDS011;46498;49.968;7.754;2022-10-16T21:37:21;19.48;;;8.30;;
28605;SDS011;46498;49.968;7.754;2022-10-16T21:42:22;14.95;;;6.57;;
28605;SDS011;46498;49.968;7.754;2022-10-16T21:47:23;10.27;;;6.68;;
28605;SDS011;46498;49.968;7.754;2022-10-16T21:52:24;16.52;;;6.90;;
28605;SDS011;46498;49.968;7.754;2022-10-16T21:57:25;13.27;;;6.20;;
28605;SDS011;46498;49.968;7.754;2022-10-16T22:02:26;13.10;;;6.35;;
28605;SDS011;46498;49.968;7.754;2022-10-16T22:07:28;11.32;;;5.45;;
28605;SDS011;46498;49.968;7.754;2022-10-16T22:12:30;11.70;;;5.57;;
28605;SDS011;46498;49.968;7.754;2022-10-16T22:17:31;17.10;;;7.03;;
28605;SDS011;46498;49.968;7.754;2022-10-16T22:22:32;11.15;;;7.07;;
28605;SDS011;46498;49.968;7.754;2022-10-16T22:27:33;16.60;;;7.78;;
28605;SDS011;46498;49.968;7.754;2022-10-16T22:32:33;14.48;;;7.47;;
28605;SDS011;46498;49.968;7.754;2022-10-16T22:37:34;21.52;;;7.45;;
28605;SDS011;46498;49.968;7.754;2022-10-16T22:42:35;16.10;;;8.25;;
28605;SDS011;46498;49.968;7.754;2022-10-16T22:47:36;12.23;;;7.70;;
28605;SDS011;46498;49.968;7.754;2022-10-16T22:52:37;14.55;;;7.25;;
28605;SDS011;46498;49.968;7.754;2022-10-16T22:57:38;10.68;;;6.10;;
28605;SDS011;46498;49.968;7.754;2022-10-16T23:02:39;11.82;;;6.60;;
28605;SDS011;46498;49.968;7.754;2022-10-16T23:07:40;10.85;;;6.37;;
28605;SDS011;46498;49.968;7.754;2022-10-16T23:12:44;15.82;;;7.07;;
28605;SDS011;46498;49.968;7.754;2022-10-16T23:17:45;8.23;;;6.00;;
28605;SDS011;46498;49.968;7.754;2022-10-16T23:22:46;7.00;;;4.95;;
28605;SDS011;46498;49.968;7.754;2022-10-16T23:27:47;6.90;;;4.80;;
28605;SDS011;46498;49.968;7.754;2022-10-16T23:32:48;17.60;;;4.97;;
28605;SDS011;46498;49.968;7.754;2022-10-16T23:37:49;9.25;;;4.53;;
28605;SDS011;46498;49.968;7.754;2022-10-16T23:42:51;9.60;;;4.25;;
28605;SDS011;46498;49.968;7.754;2022-10-16T23:47:51;10.52;;;4.70;;
28605;SDS011;46498;49.968;7.754;2022-10-16T23:52:52;6.12;;;3.58;;
28605;SDS011;46498;49.968;7.754;2022-10-16T23:57:53;8.95;;;4.18;;
